createdAt,value
2023-05-17T00:01:47.516Z,13.90
2023-05-17T00:04:14.082Z,11.80
2023-05-17T00:06:41.139Z,16.73
2023-05-17T00:09:07.762Z,14.40
2023-05-17T00:11:34.399Z,12.33
2023-05-17T00:14:00.934Z,10.70
2023-05-17T00:16:27.462Z,13.73
2023-05-17T00:18:54.279Z,12.90
2023-05-17T00:21:20.803Z,9.43
2023-05-17T00:23:47.354Z,10.30
2023-05-17T00:26:13.911Z,13.50
2023-05-17T00:28:40.403Z,15.90
2023-05-17T00:31:06.882Z,12.10
2023-05-17T00:33:33.420Z,14.40
2023-05-17T00:35:59.897Z,16.70
2023-05-17T00:38:26.482Z,10.67
2023-05-17T00:40:54.150Z,12.70
2023-05-17T00:43:20.840Z,12.57
2023-05-17T00:45:49.342Z,13.33
2023-05-17T00:48:16.234Z,13.27
2023-05-17T00:50:43.180Z,14.13
2023-05-17T00:53:16.022Z,15.70
2023-05-17T00:55:46.212Z,14.77
2023-05-17T00:58:13.629Z,14.30
2023-05-17T01:00:40.977Z,16.73
2023-05-17T01:03:08.112Z,13.80
2023-05-17T01:05:34.854Z,16.30
2023-05-17T01:08:01.365Z,15.20
2023-05-17T01:10:44.082Z,16.20
2023-05-17T01:13:17.434Z,14.00
2023-05-17T01:15:51.918Z,14.37
2023-05-17T01:18:29.992Z,20.60
2023-05-17T01:21:00.390Z,13.57
2023-05-17T01:23:44.882Z,14.90
2023-05-17T01:26:16.873Z,14.53
2023-05-17T01:28:46.262Z,19.73
2023-05-17T01:31:13.317Z,26.03
2023-05-17T01:33:40.424Z,13.80
2023-05-17T01:36:07.515Z,13.83
2023-05-17T01:38:33.958Z,15.73
2023-05-17T01:41:18.205Z,18.33
2023-05-17T01:44:00.080Z,18.23
2023-05-17T01:46:31.992Z,17.27
2023-05-17T01:49:29.520Z,13.53
2023-05-17T01:52:08.851Z,14.20
2023-05-17T01:54:42.084Z,15.67
2023-05-17T01:57:09.885Z,14.60
2023-05-17T01:59:38.538Z,18.43
2023-05-17T02:02:09.400Z,12.97
2023-05-17T02:04:36.676Z,17.60
2023-05-17T02:07:03.724Z,12.70
2023-05-17T02:09:30.972Z,14.77
2023-05-17T02:11:57.482Z,17.57
2023-05-17T02:14:23.999Z,15.93
2023-05-17T02:16:50.451Z,14.17
2023-05-17T02:19:17.022Z,14.90
2023-05-17T02:21:43.582Z,14.77
2023-05-17T02:24:10.066Z,17.17
2023-05-17T02:26:36.572Z,17.43
2023-05-17T02:29:03.098Z,12.97
2023-05-17T02:31:29.844Z,12.97
2023-05-17T02:33:56.490Z,13.37
2023-05-17T02:36:23.070Z,15.80
2023-05-17T02:38:49.529Z,16.10
2023-05-17T02:41:16.047Z,16.07
2023-05-17T02:43:42.600Z,12.83
2023-05-17T02:46:09.213Z,13.47
2023-05-17T02:48:35.850Z,19.10
2023-05-17T02:51:02.369Z,21.97
2023-05-17T02:53:28.847Z,14.40
2023-05-17T02:55:58.008Z,17.90
2023-05-17T02:58:25.766Z,12.20
2023-05-17T03:00:52.420Z,16.70
2023-05-17T03:03:19.052Z,15.17
2023-05-17T03:05:45.768Z,12.47
2023-05-17T03:08:12.229Z,16.03
2023-05-17T03:10:38.755Z,20.83
2023-05-17T03:13:05.268Z,12.53
2023-05-17T03:15:31.829Z,13.57
2023-05-17T03:17:58.556Z,14.80
2023-05-17T03:20:25.429Z,17.10
2023-05-17T03:22:51.932Z,12.50
2023-05-17T03:25:18.551Z,16.53
2023-05-17T03:27:45.031Z,16.07
2023-05-17T03:30:11.874Z,18.53
2023-05-17T03:32:40.475Z,19.17
2023-05-17T03:35:08.279Z,12.60
2023-05-17T03:37:34.860Z,14.63
2023-05-17T03:40:01.298Z,12.23
2023-05-17T03:42:27.830Z,14.63
2023-05-17T03:44:54.286Z,13.40
2023-05-17T03:47:23.885Z,18.07
2023-05-17T03:49:50.740Z,15.67
2023-05-17T03:52:17.301Z,16.27
2023-05-17T03:54:43.812Z,19.23
2023-05-17T03:57:10.431Z,16.33
2023-05-17T03:59:36.910Z,13.53
2023-05-17T04:02:03.486Z,17.50
2023-05-17T04:04:30.099Z,13.93
2023-05-17T04:06:56.688Z,17.20
2023-05-17T04:09:23.142Z,19.80
2023-05-17T04:11:49.822Z,16.80
2023-05-17T04:14:18.239Z,14.53
2023-05-17T04:16:44.781Z,16.27
2023-05-17T04:19:11.321Z,20.37
2023-05-17T04:21:38.019Z,15.87
2023-05-17T04:24:04.968Z,23.10
2023-05-17T04:26:32.220Z,17.50
2023-05-17T04:28:58.843Z,13.50
2023-05-17T04:31:25.484Z,17.60
2023-05-17T04:33:52.104Z,18.87
2023-05-17T04:36:18.750Z,19.37
2023-05-17T04:38:45.362Z,18.40
2023-05-17T04:41:11.907Z,18.00
2023-05-17T04:43:38.416Z,19.20
2023-05-17T04:46:05.950Z,20.90
2023-05-17T04:48:33.296Z,25.93
2023-05-17T04:51:06.756Z,30.37
2023-05-17T04:53:33.290Z,26.17
2023-05-17T04:55:59.928Z,26.50
2023-05-17T04:58:26.419Z,22.13
2023-05-17T05:00:52.931Z,19.50
2023-05-17T05:03:19.554Z,21.20
2023-05-17T05:05:46.148Z,17.00
2023-05-17T05:08:12.780Z,19.90
2023-05-17T05:10:39.297Z,21.53
2023-05-17T05:13:06.091Z,20.07
2023-05-17T05:15:33.060Z,22.70
2023-05-17T05:17:59.603Z,22.50
2023-05-17T05:20:27.966Z,20.17
2023-05-17T05:22:54.858Z,23.93
2023-05-17T05:25:21.378Z,24.20
2023-05-17T05:27:48.102Z,33.20
2023-05-17T05:30:21.898Z,45.57
2023-05-17T05:32:50.084Z,41.00
2023-05-17T05:35:17.378Z,35.23
2023-05-17T05:37:44.845Z,33.67
2023-05-17T05:40:11.893Z,39.70
2023-05-17T05:42:38.457Z,36.80
2023-05-17T05:45:09.569Z,37.20
2023-05-17T05:47:36.255Z,43.40
2023-05-17T05:50:02.938Z,38.90
2023-05-17T05:52:29.414Z,44.57
2023-05-17T05:54:55.853Z,39.90
2023-05-17T05:57:22.364Z,47.10
2023-05-17T05:59:48.879Z,43.40
2023-05-17T06:02:16.839Z,30.67
2023-05-17T06:04:45.728Z,32.90
2023-05-17T06:07:13.429Z,35.37
2023-05-17T06:09:40.407Z,28.13
2023-05-17T06:12:07.325Z,30.67
2023-05-17T06:14:34.068Z,28.83
2023-05-17T06:17:00.631Z,31.93
2023-05-17T06:19:27.257Z,29.03
2023-05-17T06:21:53.860Z,31.93
2023-05-17T06:24:20.528Z,30.27
2023-05-17T06:26:49.916Z,28.43
2023-05-17T06:29:16.442Z,35.40
2023-05-17T06:31:42.938Z,23.10
2023-05-17T06:34:09.492Z,26.53
2023-05-17T06:36:37.633Z,20.43
2023-05-17T06:39:05.438Z,28.97
2023-05-17T06:41:31.898Z,27.13
2023-05-17T06:43:58.371Z,23.47
2023-05-17T06:46:24.909Z,20.53
2023-05-17T06:48:51.674Z,22.30
2023-05-17T06:51:18.296Z,17.63
2023-05-17T06:53:44.881Z,22.43
2023-05-17T06:56:11.429Z,18.67
2023-05-17T06:58:37.930Z,17.07
2023-05-17T07:01:04.489Z,24.60
2023-05-17T07:03:31.142Z,19.27
2023-05-17T07:05:57.772Z,22.93
2023-05-17T07:08:24.239Z,24.53
2023-05-17T07:10:54.047Z,18.47
2023-05-17T07:13:20.715Z,19.60
2023-05-17T07:15:47.313Z,17.63
2023-05-17T07:18:14.159Z,18.93
2023-05-17T07:20:40.782Z,25.17
2023-05-17T07:23:07.706Z,17.03
2023-05-17T07:25:34.517Z,24.93
2023-05-17T07:28:01.066Z,21.17
2023-05-17T07:30:27.739Z,18.40
2023-05-17T07:32:54.399Z,19.07
2023-05-17T07:35:21.905Z,18.80
2023-05-17T07:37:48.824Z,19.00
2023-05-17T07:40:15.483Z,23.00
2023-05-17T07:42:41.995Z,21.40
2023-05-17T07:45:09.137Z,21.27
2023-05-17T07:47:35.838Z,22.43
2023-05-17T07:50:04.048Z,22.57
2023-05-17T07:52:30.602Z,18.33
2023-05-17T07:54:57.161Z,21.37
2023-05-17T07:57:23.698Z,20.87
2023-05-17T07:59:50.217Z,19.03
2023-05-17T08:02:16.764Z,22.20
2023-05-17T08:04:43.324Z,24.47
2023-05-17T08:07:09.954Z,20.20
2023-05-17T08:09:36.433Z,20.17
2023-05-17T08:12:02.983Z,20.53
2023-05-17T08:14:29.508Z,15.37
2023-05-17T08:16:56.159Z,20.20
2023-05-17T08:19:22.932Z,27.77
2023-05-17T08:21:49.625Z,15.00
2023-05-17T08:24:17.614Z,24.80
2023-05-17T08:26:45.171Z,20.27
2023-05-17T08:29:11.636Z,14.53
2023-05-17T08:31:38.107Z,16.50
2023-05-17T08:34:04.793Z,17.93
2023-05-17T08:36:32.721Z,19.17
2023-05-17T08:38:59.235Z,19.67
2023-05-17T08:41:25.807Z,19.50
2023-05-17T08:43:54.134Z,20.93
2023-05-17T08:46:23.974Z,20.37
2023-05-17T08:48:52.010Z,22.40
2023-05-17T08:51:20.770Z,19.70
2023-05-17T08:53:48.176Z,17.60
2023-05-17T08:56:16.634Z,19.63
2023-05-17T08:58:56.505Z,17.30
2023-05-17T09:01:26.512Z,21.80
2023-05-17T09:03:54.375Z,21.83
2023-05-17T09:06:22.809Z,19.17
2023-05-17T09:08:58.344Z,15.17
2023-05-17T09:11:30.757Z,20.80
2023-05-17T09:14:05.371Z,16.87
2023-05-17T09:16:33.718Z,16.93
2023-05-17T09:19:01.419Z,23.03
2023-05-17T09:21:31.013Z,17.77
2023-05-17T09:24:07.255Z,14.33
2023-05-17T09:26:46.210Z,26.80
2023-05-17T09:29:16.775Z,16.23
2023-05-17T09:31:44.302Z,23.17
2023-05-17T09:34:11.336Z,14.13
2023-05-17T09:36:42.127Z,18.20
2023-05-17T09:39:13.704Z,16.07
2023-05-17T09:41:45.303Z,19.47
2023-05-17T09:44:13.176Z,20.13
2023-05-17T09:46:46.193Z,18.53
2023-05-17T09:49:13.475Z,14.57
2023-05-17T09:51:42.719Z,19.27
2023-05-17T09:54:10.448Z,17.90
2023-05-17T09:56:37.217Z,15.47
2023-05-17T09:59:10.601Z,25.40
2023-05-17T10:01:40.538Z,27.77
2023-05-17T10:04:10.316Z,24.10
2023-05-17T10:09:14.713Z,22.07
2023-05-17T10:11:46.074Z,28.93
2023-05-17T10:14:18.661Z,16.87
2023-05-17T10:16:45.853Z,15.90
2023-05-17T10:19:14.109Z,19.67
2023-05-17T10:21:42.857Z,22.70
2023-05-17T10:24:11.320Z,16.67
2023-05-17T10:26:38.717Z,14.20
2023-05-17T10:29:06.018Z,15.90
2023-05-17T10:31:33.812Z,17.73
2023-05-17T10:34:05.619Z,17.97
2023-05-17T10:36:33.334Z,17.47
2023-05-17T10:39:00.529Z,15.87
2023-05-17T10:41:32.148Z,25.40
2023-05-17T10:44:00.933Z,13.40
2023-05-17T10:46:29.840Z,11.80
2023-05-17T10:48:59.125Z,19.20
2023-05-17T10:51:34.429Z,15.20
2023-05-17T10:54:11.903Z,11.83
2023-05-17T10:56:47.177Z,16.93
2023-05-17T10:59:22.053Z,18.60
2023-05-17T11:01:58.003Z,14.23
2023-05-17T11:04:33.568Z,14.97
2023-05-17T11:07:27.945Z,14.60
2023-05-17T11:10:03.638Z,17.37
2023-05-17T11:12:33.861Z,18.17
2023-05-17T11:15:01.373Z,15.67
2023-05-17T11:17:35.112Z,17.53
2023-05-17T11:20:02.500Z,12.83
2023-05-17T11:22:37.328Z,12.77
2023-05-17T11:25:08.531Z,14.03
2023-05-17T11:27:43.284Z,16.43
2023-05-17T11:30:31.665Z,13.07
2023-05-17T11:33:01.290Z,21.17
2023-05-17T11:35:38.958Z,14.63
2023-05-17T11:38:19.204Z,14.13
2023-05-17T11:40:47.458Z,11.80
2023-05-17T11:43:17.168Z,11.90
2023-05-17T11:45:48.213Z,11.90
2023-05-17T11:48:16.327Z,16.20
2023-05-17T11:50:44.792Z,17.47
2023-05-17T11:53:12.037Z,11.90
2023-05-17T11:55:43.952Z,15.93
2023-05-17T11:58:12.309Z,16.90
2023-05-17T12:00:40.643Z,14.40
2023-05-17T12:03:24.420Z,15.47
2023-05-17T12:06:01.166Z,13.43
2023-05-17T12:08:28.248Z,18.37
2023-05-17T12:10:56.589Z,11.90
2023-05-17T12:13:23.238Z,14.43
2023-05-17T12:16:21.898Z,13.77
2023-05-17T12:18:50.847Z,13.43
2023-05-17T12:21:19.133Z,12.40
2023-05-17T12:23:49.523Z,14.33
2023-05-17T12:26:19.920Z,11.93
2023-05-17T12:28:54.078Z,14.37
2023-05-17T12:31:24.914Z,19.93
2023-05-17T12:33:51.606Z,10.40
2023-05-17T12:36:18.758Z,21.13
2023-05-17T12:38:47.264Z,17.33
2023-05-17T12:41:15.525Z,11.83
2023-05-17T12:43:45.042Z,14.07
2023-05-17T12:46:20.334Z,16.17
2023-05-17T12:48:48.086Z,17.80
2023-05-17T12:51:16.354Z,15.07
2023-05-17T12:53:53.097Z,15.53
2023-05-17T12:56:24.457Z,16.80
2023-05-17T12:59:04.765Z,12.13
2023-05-17T13:01:44.265Z,19.80
2023-05-17T13:04:11.847Z,16.00
2023-05-17T13:06:54.529Z,16.00
2023-05-17T13:09:24.087Z,11.67
2023-05-17T13:11:57.894Z,16.93
2023-05-17T13:14:37.816Z,11.77
2023-05-17T13:17:05.739Z,13.70
2023-05-17T13:19:33.214Z,13.00
2023-05-17T13:21:59.997Z,12.03
2023-05-17T13:24:27.886Z,17.53
2023-05-17T13:26:54.646Z,18.43
2023-05-17T13:29:35.288Z,13.70
2023-05-17T13:32:06.651Z,11.00
2023-05-17T13:34:33.148Z,12.37
2023-05-17T13:36:59.677Z,13.17
2023-05-17T13:39:26.167Z,18.83
2023-05-17T13:41:52.893Z,14.63
2023-05-17T13:44:19.468Z,14.33
2023-05-17T13:46:45.956Z,14.33
2023-05-17T13:49:12.936Z,21.90
2023-05-17T13:51:39.775Z,12.77
2023-05-17T13:54:07.369Z,16.80
2023-05-17T13:56:34.609Z,13.03
2023-05-17T13:59:01.237Z,14.07
2023-05-17T14:01:27.887Z,14.30
2023-05-17T14:03:55.304Z,14.60
2023-05-17T14:06:21.964Z,13.37
2023-05-17T14:08:48.650Z,12.90
2023-05-17T14:11:15.230Z,12.33
2023-05-17T14:13:42.797Z,13.47
2023-05-17T14:16:09.434Z,12.50
2023-05-17T14:18:36.241Z,13.40
2023-05-17T14:21:03.570Z,17.90
2023-05-17T14:23:30.206Z,13.17
2023-05-17T14:25:57.761Z,15.80
2023-05-17T14:28:24.581Z,12.07
2023-05-17T14:30:51.848Z,14.70
2023-05-17T14:33:18.619Z,13.50
2023-05-17T14:35:45.243Z,13.20
2023-05-17T14:38:11.802Z,14.40
2023-05-17T14:40:38.324Z,13.37
2023-05-17T14:43:05.053Z,10.70
2023-05-17T14:45:31.835Z,51.60
2023-05-17T14:47:58.397Z,25.93
2023-05-17T14:50:25.009Z,12.17
2023-05-17T14:52:51.564Z,10.80
2023-05-17T14:55:18.780Z,12.30
2023-05-17T14:57:45.848Z,11.10
2023-05-17T15:00:13.548Z,12.40
2023-05-17T15:02:40.174Z,11.90
2023-05-17T15:05:07.293Z,13.33
2023-05-17T15:07:34.378Z,16.13
2023-05-17T15:10:01.389Z,11.67
2023-05-17T15:12:28.368Z,12.10
2023-05-17T15:14:54.882Z,14.43
2023-05-17T15:17:22.135Z,13.00
2023-05-17T15:19:48.991Z,13.23
2023-05-17T15:22:15.930Z,10.67
2023-05-17T15:24:42.800Z,14.97
2023-05-17T15:27:12.634Z,9.97
2023-05-17T15:29:40.816Z,12.30
2023-05-17T15:32:07.495Z,9.77
2023-05-17T15:34:34.264Z,12.30
2023-05-17T15:37:02.086Z,19.97
2023-05-17T15:39:28.648Z,11.70
2023-05-17T15:41:55.127Z,14.00
2023-05-17T15:44:23.912Z,15.00
2023-05-17T15:46:50.855Z,18.10
2023-05-17T15:49:17.420Z,13.80
2023-05-17T15:51:44.009Z,18.37
2023-05-17T15:54:10.689Z,18.77
2023-05-17T15:56:38.325Z,18.07
2023-05-17T15:59:05.855Z,15.40
2023-05-17T16:01:32.624Z,10.60
2023-05-17T16:03:59.170Z,14.10
2023-05-17T16:06:25.876Z,12.43
2023-05-17T16:08:53.383Z,19.87
2023-05-17T16:11:21.450Z,13.77
2023-05-17T16:13:47.950Z,11.73
2023-05-17T16:16:14.742Z,12.63
2023-05-17T16:18:41.413Z,15.17
2023-05-17T16:21:08.003Z,16.13
2023-05-17T16:23:34.614Z,10.03
2023-05-17T16:26:01.454Z,14.60
2023-05-17T16:28:28.059Z,16.33
2023-05-17T16:30:54.702Z,16.10
2023-05-17T16:33:21.470Z,13.73
2023-05-17T16:35:49.340Z,13.83
2023-05-17T16:38:16.559Z,19.47
2023-05-17T16:40:43.218Z,16.03
2023-05-17T16:43:10.018Z,14.43
2023-05-17T16:45:36.573Z,20.40
2023-05-17T16:48:03.226Z,16.33
2023-05-17T16:50:29.904Z,23.27
2023-05-17T16:52:56.825Z,20.10
2023-05-17T16:55:23.460Z,14.10
2023-05-17T16:57:50.013Z,20.43
2023-05-17T17:00:17.510Z,18.83
2023-05-17T17:02:44.046Z,17.63
2023-05-17T17:05:10.685Z,22.43
2023-05-17T17:07:37.228Z,16.70
2023-05-17T17:10:03.989Z,19.53
2023-05-17T17:12:30.988Z,16.77
2023-05-17T17:14:57.453Z,17.73
2023-05-17T17:17:23.996Z,20.17
2023-05-17T17:19:50.496Z,18.57
2023-05-17T17:22:16.994Z,13.67
2023-05-17T17:24:44.458Z,19.07
2023-05-17T17:27:11.606Z,17.03
2023-05-17T17:29:38.112Z,15.83
2023-05-17T17:32:05.164Z,14.73
2023-05-17T17:34:31.919Z,17.37
2023-05-17T17:36:58.414Z,20.00
2023-05-17T17:39:25.131Z,15.33
2023-05-17T17:41:51.736Z,22.20
2023-05-17T17:44:19.585Z,19.37
2023-05-17T17:46:46.137Z,13.87
2023-05-17T17:49:12.645Z,16.10
2023-05-17T17:51:39.093Z,18.73
2023-05-17T17:54:07.314Z,22.93
2023-05-17T17:56:34.028Z,23.90
2023-05-17T17:59:00.580Z,21.23
2023-05-17T18:01:27.692Z,18.73
2023-05-17T18:03:54.236Z,17.80
2023-05-17T18:06:20.901Z,18.57
2023-05-17T18:08:47.391Z,16.90
2023-05-17T18:11:13.920Z,17.50
2023-05-17T18:13:40.497Z,15.13
2023-05-17T18:16:07.055Z,19.43
2023-05-17T18:18:33.871Z,18.83
2023-05-17T18:21:00.428Z,17.70
2023-05-17T18:23:26.926Z,16.67
2023-05-17T18:25:53.511Z,18.00
2023-05-17T18:28:29.691Z,20.17
2023-05-17T18:31:04.585Z,14.73
2023-05-17T18:33:31.517Z,19.10
2023-05-17T18:35:58.081Z,17.20
2023-05-17T18:38:24.557Z,17.40
2023-05-17T18:40:51.204Z,16.23
2023-05-17T18:43:17.921Z,21.90
2023-05-17T18:45:44.449Z,18.30
2023-05-17T18:48:10.975Z,16.33
2023-05-17T18:50:37.507Z,16.20
2023-05-17T18:53:03.981Z,21.63
2023-05-17T18:55:30.530Z,17.00
2023-05-17T18:57:57.097Z,14.40
2023-05-17T19:00:23.597Z,18.53
2023-05-17T19:02:50.076Z,15.00
2023-05-17T19:05:16.696Z,18.80
2023-05-17T19:07:43.327Z,15.30
2023-05-17T19:10:10.468Z,13.97
2023-05-17T19:12:37.036Z,16.70
2023-05-17T19:15:04.162Z,13.50
2023-05-17T19:17:31.054Z,19.67
2023-05-17T19:19:57.585Z,16.53
2023-05-17T19:22:24.110Z,14.80
2023-05-17T19:24:50.773Z,19.17
2023-05-17T19:27:19.631Z,21.73
2023-05-17T19:29:47.117Z,15.00
2023-05-17T19:32:13.758Z,17.00
2023-05-17T19:34:40.429Z,15.87
2023-05-17T19:37:07.216Z,20.80
2023-05-17T19:39:36.251Z,15.07
2023-05-17T19:42:04.262Z,23.83
2023-05-17T19:44:31.220Z,15.93
2023-05-17T19:46:57.817Z,23.43
2023-05-17T19:49:24.531Z,15.77
2023-05-17T19:51:53.998Z,15.60
2023-05-17T19:54:21.824Z,15.47
2023-05-17T19:56:48.333Z,19.33
2023-05-17T19:59:14.891Z,19.30
2023-05-17T20:01:41.837Z,21.10
2023-05-17T20:04:10.352Z,14.67
2023-05-17T20:06:37.383Z,19.80
2023-05-17T20:09:04.519Z,22.77
2023-05-17T20:11:31.479Z,21.90
2023-05-17T20:13:57.995Z,18.10
2023-05-17T20:16:27.829Z,16.03
2023-05-17T20:18:55.011Z,15.13
2023-05-17T20:21:22.971Z,16.20
2023-05-17T20:23:51.324Z,19.73
2023-05-17T20:26:19.032Z,15.43
2023-05-17T20:28:46.144Z,21.73
2023-05-17T20:31:12.762Z,15.50
2023-05-17T20:33:39.356Z,17.07
2023-05-17T20:36:06.109Z,14.77
2023-05-17T20:38:32.630Z,17.40
2023-05-17T20:41:00.679Z,15.00
2023-05-17T20:43:28.934Z,17.20
2023-05-17T20:45:55.832Z,19.20
2023-05-17T20:48:22.414Z,16.47
2023-05-17T20:50:49.327Z,12.87
2023-05-17T20:53:16.111Z,14.47
2023-05-17T20:55:44.238Z,23.53
2023-05-17T20:58:11.429Z,15.87
2023-05-17T21:00:38.295Z,12.90
2023-05-17T21:03:05.004Z,21.27
2023-05-17T21:05:36.033Z,19.03
2023-05-17T21:08:03.098Z,26.03
2023-05-17T21:10:30.079Z,15.27
2023-05-17T21:12:57.055Z,15.93
2023-05-17T21:15:24.192Z,20.27
2023-05-17T21:17:51.249Z,18.63
2023-05-17T21:20:17.820Z,24.23
2023-05-17T21:22:45.445Z,17.03
2023-05-17T21:25:11.962Z,17.53
2023-05-17T21:27:38.604Z,14.23
2023-05-17T21:30:05.924Z,18.30
2023-05-17T21:32:32.495Z,17.17
2023-05-17T21:34:59.710Z,13.87
2023-05-17T21:37:26.442Z,15.53
2023-05-17T21:39:52.976Z,15.63
2023-05-17T21:42:19.558Z,19.20
2023-05-17T21:44:46.023Z,16.00
2023-05-17T21:47:12.458Z,13.87
2023-05-17T21:49:38.917Z,19.17
2023-05-17T21:52:05.890Z,12.80
2023-05-17T21:54:32.409Z,22.20
2023-05-17T21:56:58.945Z,16.03
2023-05-17T21:59:25.427Z,21.40
2023-05-17T22:01:55.016Z,15.70
2023-05-17T22:04:21.690Z,14.23
2023-05-17T22:06:48.225Z,17.83
2023-05-17T22:09:14.821Z,14.60
2023-05-17T22:11:41.323Z,13.77
2023-05-17T22:14:08.041Z,13.77
2023-05-17T22:16:36.152Z,13.87
2023-05-17T22:19:03.863Z,19.70
2023-05-17T22:21:31.587Z,17.33
2023-05-17T22:23:59.158Z,11.90
2023-05-17T22:26:25.765Z,15.37
2023-05-17T22:28:52.369Z,21.50
2023-05-17T22:31:19.692Z,13.90
2023-05-17T22:33:46.508Z,13.43
2023-05-17T22:36:14.097Z,12.97
2023-05-17T22:38:42.648Z,13.00
2023-05-17T22:41:10.079Z,17.63
2023-05-17T22:43:37.115Z,12.47
2023-05-17T22:46:03.992Z,13.97
2023-05-17T22:48:31.964Z,14.83
2023-05-17T22:51:01.569Z,17.00
2023-05-17T22:53:31.579Z,11.93
2023-05-17T22:55:58.116Z,13.47
2023-05-17T22:58:24.646Z,17.20
2023-05-17T23:00:52.085Z,13.10
2023-05-17T23:03:19.527Z,17.83
2023-05-17T23:05:46.078Z,20.73
2023-05-17T23:08:15.325Z,18.40
2023-05-17T23:10:45.315Z,14.80
2023-05-17T23:13:12.506Z,19.50
2023-05-17T23:15:40.724Z,21.60
2023-05-17T23:18:07.422Z,13.20
2023-05-17T23:20:35.009Z,15.73
2023-05-17T23:23:01.819Z,19.43
2023-05-17T23:25:29.289Z,15.27
2023-05-17T23:27:58.095Z,14.37
2023-05-17T23:30:25.105Z,17.17
2023-05-17T23:35:18.814Z,15.87
2023-05-17T23:37:45.379Z,19.30
2023-05-17T23:40:12.546Z,17.00
2023-05-17T23:42:40.425Z,14.07
2023-05-17T23:45:09.849Z,21.80
2023-05-17T23:47:40.447Z,15.80
2023-05-17T23:50:09.269Z,23.93
2023-05-17T23:52:38.847Z,19.37
2023-05-17T23:55:09.072Z,19.97
2023-05-17T23:57:35.608Z,20.63
